Time;durP1;ratioP1;P1;durP2;ratioP2;P2;SDS_P1;SDS_P2;PMS_P1;PMS_P2;Temp;Humidity;BMP_temperature;BMP_pressure;BME280_temperature;BME280_humidity;BME280_pressure;Samples;Min_cycle;Max_cycle;Signal;HPM_P1;HPM_P2
2021/12/14 00:00:09;;;;;;;5.90;4.05;;;;;;;6.86;100.00;101672.03;5065437;28;20040;-58
2021/12/14 00:02:35;;;;;;;;;;;;;;;6.85;100.00;101686.00;5064976;28;20489;-59
2021/12/14 00:05:00;;;;;;;5.70;4.22;;;;;;;6.81;100.00;101676.47;5065778;28;19924;-58
2021/12/14 00:07:27;;;;;;;5.97;4.18;;;;;;;6.82;100.00;101678.22;5067046;28;20027;-58
2021/12/14 00:10:01;;;;;;;6.43;4.30;;;;;;;6.42;100.00;101599.53;5066405;28;20032;-59
2021/12/14 00:17:41;;;;;;;6.35;4.50;;;;;;;6.85;100.00;101657.25;5065105;28;20044;-58
2021/12/14 00:20:14;;;;;;;5.95;4.00;;;;;;;6.89;100.00;101651.13;5065223;28;20830;-58
2021/12/14 00:25:29;;;;;;;12.20;4.43;;;;;;;6.89;100.00;101663.31;5064703;28;20109;-58
2021/12/14 00:27:56;;;;;;;6.20;5.05;;;;;;;6.88;100.00;101653.75;5062144;28;20138;-58
2021/12/14 00:30:22;;;;;;;7.22;4.88;;;;;;;6.65;100.00;101609.69;5063869;28;20047;-58
2021/12/14 00:32:47;;;;;;;10.80;4.95;;;;;;;6.86;100.00;101645.06;5066217;28;20028;-59
2021/12/14 00:35:13;;;;;;;7.72;4.40;;;;;;;6.85;100.00;101654.66;5065669;28;20031;-58
2021/12/14 00:37:45;;;;;;;5.80;4.22;;;;;;;6.85;100.00;101652.03;5064723;28;20031;-58
2021/12/14 00:40:22;;;;;;;7.22;4.43;;;;;;;6.83;100.00;101664.25;5063877;28;20055;-58
2021/12/14 00:42:47;;;;;;;9.68;5.20;;;;;;;6.82;100.00;101670.38;5063590;28;20063;-58
2021/12/14 00:45:14;;;;;;;9.40;5.45;;;;;;;6.81;100.00;101657.31;5064044;28;20897;-58
2021/12/14 00:47:40;;;;;;;10.20;5.85;;;;;;;6.79;100.00;101680.88;5060683;28;20841;-58
2021/12/14 00:50:06;;;;;;;7.95;5.53;;;;;;;6.75;100.00;101668.72;5064673;28;20034;-58
2021/12/14 00:52:32;;;;;;;8.18;5.80;;;;;;;6.72;100.00;101670.53;5064521;28;20089;-58
2021/12/14 00:54:57;;;;;;;10.05;6.18;;;;;;;6.70;100.00;101686.19;5062452;28;20264;-58
2021/12/14 00:57:23;;;;;;;7.60;6.28;;;;;;;6.67;100.00;101691.47;5062044;28;20035;-58
2021/12/14 00:59:49;;;;;;;7.75;6.05;;;;;;;6.60;100.00;101679.38;5064570;28;20043;-58
2021/12/14 01:02:20;;;;;;;9.07;6.38;;;;;;;6.59;100.00;101694.16;5066648;28;20305;-58
2021/12/14 01:04:54;;;;;;;8.77;6.13;;;;;;;6.57;100.00;101674.19;5065933;28;20036;-58
2021/12/14 01:07:24;;;;;;;8.25;5.60;;;;;;;6.55;100.00;101673.38;5066076;28;20562;-58
2021/12/14 01:09:52;;;;;;;12.13;6.32;;;;;;;6.53;100.00;101685.56;5064895;28;20141;-58
2021/12/14 01:12:31;;;;;;;11.20;7.25;;;;;;;6.22;100.00;101632.03;5062939;28;20189;-58
2021/12/14 01:15:23;;;;;;;9.70;7.15;;;;;;;6.51;100.00;101679.50;5064645;28;20028;-58
2021/12/14 01:18:01;;;;;;;10.80;7.93;;;;;;;6.48;100.00;101679.56;5064845;28;20089;-58
2021/12/14 01:20:31;;;;;;;12.63;7.75;;;;;;;6.35;100.00;101657.09;5063612;28;20966;-58
2021/12/14 01:23:01;;;;;;;10.65;7.20;;;;;;;6.46;100.00;101681.28;5062439;28;20028;-58
2021/12/14 01:25:32;;;;;;;11.15;7.45;;;;;;;6.45;100.00;101680.47;5065672;28;20039;-58
2021/12/14 01:28:03;;;;;;;10.13;7.50;;;;;;;6.43;100.00;101678.72;5065064;28;20043;-58
2021/12/14 01:30:41;;;;;;;11.32;8.55;;;;;;;6.42;100.00;101684.84;5066366;28;20848;-58
2021/12/14 01:33:09;;;;;;;13.60;8.63;;;;;;;6.40;100.00;101690.06;5072226;28;20486;-58
2021/12/14 01:35:38;;;;;;;13.80;8.73;;;;;;;6.38;100.00;101699.69;5072184;28;20036;-58
2021/12/14 01:38:34;;;;;;;15.48;9.23;;;;;;;6.37;100.00;101690.13;5072633;28;20032;-58
2021/12/14 01:41:06;;;;;;;14.60;8.55;;;;;;;6.37;100.00;101686.63;5071563;28;20036;-58
2021/12/14 01:43:47;;;;;;;10.23;8.05;;;;;;;6.38;100.00;101683.16;5051670;28;20484;-58
2021/12/14 01:46:20;;;;;;;12.73;8.10;;;;;;;6.36;100.00;101695.34;5064123;28;20063;-58
2021/12/14 01:48:46;;;;;;;10.68;8.63;;;;;;;6.37;100.00;101707.53;5069742;28;20036;-58
2021/12/14 01:51:13;;;;;;;13.55;9.60;;;;;;;6.33;100.00;101692.78;5069028;28;20139;-58
2021/12/14 01:53:41;;;;;;;15.18;10.07;;;;;;;6.34;100.00;101692.78;5069874;28;20074;-58
2021/12/14 01:56:10;;;;;;;15.55;9.32;;;;;;;6.37;100.00;101697.09;5064938;28;20032;-58
2021/12/14 01:58:40;;;;;;;12.82;9.80;;;;;;;6.38;100.00;101698.81;5066952;28;20028;-58
2021/12/14 02:01:35;;;;;;;13.77;10.10;;;;;;;6.38;100.00;101683.16;5070608;28;20119;-58
2021/12/14 02:04:01;;;;;;;;;;;;;;;6.38;100.00;101677.94;5071951;28;20135;-58
2021/12/14 02:06:31;;;;;;;11.32;9.20;;;;;;;6.37;100.00;101673.59;5069028;28;19912;-58
2021/12/14 02:09:06;;;;;;;16.67;10.48;;;;;;;6.35;100.00;101657.97;5066942;28;20105;-58
2021/12/14 02:11:36;;;;;;;13.98;10.70;;;;;;;6.35;100.00;101657.97;5067928;28;20028;-58
2021/12/14 02:17:24;;;;;;;17.50;11.02;;;;;;;6.33;100.00;101653.63;5065558;28;20089;-58
2021/12/14 02:19:50;;;;;;;13.00;9.85;;;;;;;6.32;100.00;101654.53;5068083;28;20032;-59
2021/12/14 02:22:15;;;;;;;19.27;10.48;;;;;;;6.31;100.00;101650.19;5064977;28;20043;-58
2021/12/14 02:24:47;;;;;;;18.30;10.90;;;;;;;6.29;100.00;101657.16;5068105;28;20032;-58
2021/12/14 02:27:13;;;;;;;17.77;11.38;;;;;;;6.29;100.00;101658.00;5070125;28;20036;-58
2021/12/14 02:29:41;;;;;;;15.25;11.50;;;;;;;6.26;100.00;101631.09;5070034;28;20032;-58
2021/12/14 02:32:14;;;;;;;17.67;11.95;;;;;;;6.27;100.00;101638.03;5070272;28;20035;-58
2021/12/14 02:34:48;;;;;;;14.45;11.75;;;;;;;6.25;100.00;101638.09;5052859;28;20028;-58
2021/12/14 02:37:15;;;;;;;18.27;10.32;;;;;;;6.24;100.00;101643.31;5069644;28;20061;-58
2021/12/14 02:42:09;;;;;;;16.10;11.70;;;;;;;6.23;100.00;101620.69;5067246;28;20032;-58
2021/12/14 02:44:35;;;;;;;17.67;12.60;;;;;;;6.24;100.00;101617.22;5067752;28;20963;-58
2021/12/14 02:47:06;;;;;;;13.88;11.00;;;;;;;6.23;100.00;101605.91;5067599;28;20028;-58
2021/12/14 02:49:34;;;;;;;15.73;12.57;;;;;;;6.24;100.00;101617.22;5068126;28;20094;-58
2021/12/14 02:52:05;;;;;;;14.90;11.93;;;;;;;6.21;100.00;101610.28;5066937;28;20036;-58
2021/12/14 02:54:42;;;;;;;16.45;12.40;;;;;;;6.18;100.00;101611.16;5067189;28;20039;-58
2021/12/14 02:57:11;;;;;;;19.52;12.27;;;;;;;6.21;100.00;101612.03;5067343;28;20086;-58
2021/12/14 02:59:39;;;;;;;15.27;11.18;;;;;;;6.23;100.00;101615.47;5066860;28;20038;-58
2021/12/14 03:02:15;;;;;;;16.00;10.20;;;;;;;6.20;100.00;101615.50;5065791;28;20024;-58
2021/12/14 03:04:56;;;;;;;20.10;11.02;;;;;;;6.18;100.00;101611.16;5061729;28;20085;-58
2021/12/14 03:07:25;;;;;;;14.20;11.23;;;;;;;6.18;100.00;101614.69;5066565;28;20071;-58
2021/12/14 03:10:06;;;;;;;16.90;10.98;;;;;;;6.14;100.00;101622.56;5067168;28;20035;-58
2021/12/14 03:12:35;;;;;;;13.15;10.00;;;;;;;6.14;100.00;101619.94;5066444;28;20125;-57
2021/12/14 03:15:07;;;;;;;12.85;10.15;;;;;;;6.14;100.00;101626.91;5066758;28;20032;-57
2021/12/14 03:17:32;;;;;;;12.35;9.48;;;;;;;6.15;100.00;101628.66;5067075;28;20032;-57
2021/12/14 03:20:12;;;;;;;14.10;10.27;;;;;;;6.14;100.00;101627.78;5064343;28;20082;-57
2021/12/14 03:22:59;;;;;;;13.80;10.65;;;;;;;6.13;100.00;101622.56;5065952;28;20464;-57
2021/12/14 03:25:27;;;;;;;16.25;9.82;;;;;;;6.11;100.00;101620.00;5065675;28;20043;-57
2021/12/14 03:27:53;;;;;;;14.57;9.30;;;;;;;6.13;100.00;101606.91;5068688;28;20153;-57
2021/12/14 03:30:27;;;;;;;14.90;10.07;;;;;;;6.11;100.00;101612.16;5065819;28;20040;-57
2021/12/14 03:32:55;;;;;;;13.55;9.38;;;;;;;6.12;100.00;101602.56;5068550;28;20886;-57
2021/12/14 03:35:21;;;;;;;15.10;10.55;;;;;;;6.13;100.00;101607.78;5068173;28;20028;-57
2021/12/14 03:37:47;;;;;;;13.55;10.68;;;;;;;6.12;100.00;101618.22;5065173;28;20037;-57
2021/12/14 03:40:13;;;;;;;13.40;10.95;;;;;;;6.12;100.00;101608.66;5067368;28;20027;-57
2021/12/14 03:42:41;;;;;;;19.83;10.80;;;;;;;6.01;100.00;101594.91;5065861;28;20084;-57
2021/12/14 03:45:16;;;;;;;15.07;11.18;;;;;;;6.11;100.00;101608.69;5064974;28;20035;-57
2021/12/14 03:47:46;;;;;;;20.02;11.57;;;;;;;5.99;100.00;101591.41;5067310;28;20078;-57
2021/12/14 03:50:19;;;;;;;16.52;11.20;;;;;;;6.12;100.00;101603.44;5063037;28;20691;-57
2021/12/14 03:52:45;;;;;;;14.45;11.70;;;;;;;5.87;100.00;101557.69;5065418;28;20067;-57
2021/12/14 03:55:45;;;;;;;15.63;11.18;;;;;;;6.10;100.00;101597.38;5064428;28;20817;-57
2021/12/14 03:58:20;;;;;;;14.73;10.48;;;;;;;6.11;100.00;101585.19;5032158;28;20043;-57
2021/12/14 04:00:55;;;;;;;14.38;10.98;;;;;;;6.10;100.00;101589.56;5066663;28;20028;-57
2021/12/14 04:03:22;;;;;;;17.75;11.95;;;;;;;6.01;100.00;101573.16;5067650;28;20036;-57
2021/12/14 04:05:48;;;;;;;15.75;11.90;;;;;;;6.07;100.00;101597.41;5066519;28;20036;-57
2021/12/14 04:08:15;;;;;;;15.88;10.50;;;;;;;6.07;100.00;101605.25;5065889;28;20799;-57
2021/12/14 04:10:42;;;;;;;19.63;11.10;;;;;;;6.06;100.00;101613.94;5065796;28;20028;-57
2021/12/14 04:13:14;;;;;;;11.75;9.43;;;;;;;6.06;100.00;101598.28;5065090;28;20068;-57
2021/12/14 04:15:41;;;;;;;14.90;10.32;;;;;;;5.86;100.00;101563.75;5066669;28;20036;-56
2021/12/14 04:18:07;;;;;;;14.60;10.13;;;;;;;6.06;100.00;101611.34;5066229;28;20036;-57
2021/12/14 04:20:35;;;;;;;16.02;9.82;;;;;;;6.05;100.00;101612.22;5066911;28;20051;-57
2021/12/14 04:23:06;;;;;;;12.65;9.18;;;;;;;6.06;100.00;101613.94;5049547;28;20031;-57
2021/12/14 04:25:33;;;;;;;11.55;8.55;;;;;;;6.04;100.00;101626.16;5050572;28;20060;-58
2021/12/14 04:28:01;;;;;;;15.23;9.32;;;;;;;6.01;100.00;101626.19;5064414;28;20135;-57
2021/12/14 04:30:27;;;;;;;13.93;9.88;;;;;;;6.03;100.00;101645.28;5042524;28;20251;-57
2021/12/14 04:32:57;;;;;;;10.20;8.05;;;;;;;6.03;100.00;101650.50;5063722;28;20028;-57
2021/12/14 04:35:22;;;;;;;16.92;9.38;;;;;;;6.04;100.00;101651.38;5066508;28;20024;-57
2021/12/14 04:37:56;;;;;;;11.95;9.25;;;;;;;6.02;100.00;101654.00;5067443;28;20057;-57
2021/12/14 04:51:53;;;;;;;15.20;9.85;;;;;;;6.01;100.00;101646.19;5065982;28;20032;-57
2021/12/14 04:54:24;;;;;;;12.02;8.93;;;;;;;6.03;100.00;101640.06;5063999;28;20790;-57
2021/12/14 04:56:49;;;;;;;13.43;9.13;;;;;;;6.04;100.00;101636.59;5064092;28;20028;-57
2021/12/14 04:59:27;;;;;;;15.23;10.07;;;;;;;6.04;100.00;101647.03;5066390;28;20911;-57
2021/12/14 05:01:57;;;;;;;15.55;9.40;;;;;;;6.06;100.00;101637.44;5064641;28;20024;-57
2021/12/14 05:04:24;;;;;;;13.13;9.45;;;;;;;6.07;100.00;101636.56;5060834;28;20032;-57
2021/12/14 05:06:57;;;;;;;10.15;8.43;;;;;;;6.05;100.00;101627.88;5062787;28;20032;-57
2021/12/14 05:09:29;;;;;;;11.43;8.70;;;;;;;6.07;100.00;101639.16;5052339;28;20229;-57
2021/12/14 05:11:59;;;;;;;10.73;8.18;;;;;;;6.07;100.00;101644.38;5066947;28;20030;-57
2021/12/14 05:14:28;;;;;;;15.65;9.20;;;;;;;6.07;100.00;101647.00;5068271;28;20055;-57
2021/12/14 05:16:56;;;;;;;17.20;11.02;;;;;;;6.07;100.00;101639.16;5068346;28;20800;-57
2021/12/14 05:19:24;;;;;;;11.68;9.25;;;;;;;6.08;100.00;101635.66;5064977;28;20281;-57
2021/12/14 05:21:50;;;;;;;12.52;9.25;;;;;;;6.07;100.00;101633.06;5064661;28;20032;-57
2021/12/14 05:24:18;;;;;;;9.82;8.05;;;;;;;6.06;100.00;101629.59;5065501;28;20032;-57
2021/12/14 05:26:45;;;;;;;13.15;9.98;;;;;;;6.06;100.00;101639.16;5065761;28;20332;-57
2021/12/14 05:29:11;;;;;;;13.95;9.48;;;;;;;6.04;100.00;101636.59;5065336;28;20032;-57
2021/12/14 05:31:49;;;;;;;11.38;9.02;;;;;;;6.04;100.00;101640.94;5064585;28;20028;-58
2021/12/14 05:34:15;;;;;;;16.17;9.85;;;;;;;6.05;100.00;101643.50;5065851;28;20059;-58
2021/12/14 05:36:42;;;;;;;16.05;10.93;;;;;;;6.04;100.00;101649.63;5066576;28;20482;-57
2021/12/14 05:44:44;;;;;;;14.60;10.30;;;;;;;6.03;100.00;101624.41;5068154;28;20405;-58
2021/12/14 05:47:17;;;;;;;17.58;11.95;;;;;;;5.89;100.00;101600.25;5067068;28;20035;-57
2021/12/14 05:49:46;;;;;;;17.38;12.55;;;;;;;6.03;100.00;101624.41;5067595;28;20028;-58
2021/12/14 05:52:19;;;;;;;17.92;11.82;;;;;;;6.03;100.00;101614.00;5066837;28;20035;-58
2021/12/14 05:54:44;;;;;;;17.63;12.07;;;;;;;6.02;100.00;101607.03;5065787;28;20812;-58
2021/12/14 05:57:15;;;;;;;16.27;11.63;;;;;;;6.03;100.00;101618.34;5061977;28;20032;-58
2021/12/14 05:59:40;;;;;;;20.40;13.32;;;;;;;6.02;100.00;101617.47;5065631;28;20036;-57
2021/12/14 06:02:08;;;;;;;17.27;12.93;;;;;;;6.05;100.00;101627.03;5067202;28;20093;-57
2021/12/14 06:04:36;;;;;;;19.15;13.07;;;;;;;6.04;100.00;101623.56;5066926;28;20063;-57
2021/12/14 06:07:02;;;;;;;14.57;11.98;;;;;;;6.07;100.00;101635.69;5065695;28;20031;-58
2021/12/14 06:09:31;;;;;;;19.98;12.88;;;;;;;6.07;100.00;101631.34;5066418;28;20035;-58
2021/12/14 06:12:06;;;;;;;23.00;14.43;;;;;;;6.08;100.00;101640.03;5067692;28;20028;-57
2021/12/14 06:14:32;;;;;;;27.45;13.63;;;;;;;6.09;100.00;101640.00;5069905;28;20512;-57
2021/12/14 06:17:00;;;;;;;20.95;13.98;;;;;;;6.09;100.00;101637.38;5068193;28;20032;-58
2021/12/14 06:19:32;;;;;;;19.38;14.05;;;;;;;5.97;100.00;101628.84;5070204;28;20031;-57
2021/12/14 06:22:08;;;;;;;18.45;12.80;;;;;;;6.10;100.00;101635.66;5068940;28;20028;-57
2021/12/14 06:24:39;;;;;;;17.83;13.13;;;;;;;6.10;100.00;101646.09;5070020;28;20047;-57
2021/12/14 06:27:08;;;;;;;25.92;15.27;;;;;;;5.80;100.00;101594.25;5054118;28;20043;-57
2021/12/14 06:29:55;;;;;;;24.10;13.27;;;;;;;6.10;100.00;101636.50;5076554;28;20035;-58
2021/12/14 06:32:23;;;;;;;15.10;11.65;;;;;;;6.09;100.00;101640.00;5070906;28;20062;-57
2021/12/14 06:35:18;;;;;;;17.48;13.05;;;;;;;6.11;100.00;101642.59;5069965;28;20854;-58
2021/12/14 06:40:37;;;;;;;20.10;12.07;;;;;;;6.10;100.00;101644.34;5067615;28;20048;-58
2021/12/14 06:43:08;;;;;;;17.75;12.48;;;;;;;6.09;100.00;101644.34;5068154;28;20814;-57
2021/12/14 06:45:41;;;;;;;16.63;12.07;;;;;;;5.84;100.00;101611.59;5068816;28;20705;-57
2021/12/14 06:48:20;;;;;;;17.33;11.98;;;;;;;6.09;100.00;101645.22;5068312;28;20032;-57
2021/12/14 06:50:45;;;;;;;16.00;12.38;;;;;;;6.09;100.00;101655.66;5069504;28;20027;-58
2021/12/14 06:53:15;;;;;;;14.82;11.43;;;;;;;6.08;100.00;101664.34;5069629;28;20743;-57
2021/12/14 06:55:42;;;;;;;16.20;12.05;;;;;;;6.10;100.00;101662.59;5068921;28;20096;-57
2021/12/14 06:58:14;;;;;;;13.40;11.52;;;;;;;6.11;100.00;101659.13;5067828;28;20032;-57
2021/12/14 07:00:47;;;;;;;15.10;11.68;;;;;;;6.10;100.00;101662.59;5068130;28;20024;-58
2021/12/14 07:03:13;;;;;;;15.00;11.03;;;;;;;6.08;100.00;101666.97;5068395;28;20039;-58
2021/12/14 07:05:41;;;;;;;18.95;11.38;;;;;;;6.13;100.00;101666.91;5074809;28;20043;-58
2021/12/14 07:08:10;;;;;;;19.98;12.57;;;;;;;6.13;100.00;101672.13;5084573;28;20032;-57
2021/12/14 07:10:39;;;;;;;13.93;11.63;;;;;;;6.13;100.00;101682.56;5083923;28;20560;-58
2021/12/14 07:13:18;;;;;;;18.63;10.75;;;;;;;6.14;100.00;101689.53;5085207;28;20437;-57
2021/12/14 07:15:44;;;;;;;15.60;11.73;;;;;;;6.14;100.00;101684.31;5064680;28;20699;-57
2021/12/14 07:18:10;;;;;;;20.10;13.02;;;;;;;6.13;100.00;101683.44;5062233;28;20063;-57
2021/12/14 07:20:49;;;;;;;18.20;12.23;;;;;;;6.11;100.00;101680.00;5062062;28;20072;-57
2021/12/14 07:23:34;;;;;;;17.23;12.13;;;;;;;6.13;100.00;101683.44;5061627;28;20028;-57
2021/12/14 07:26:09;;;;;;;17.40;11.35;;;;;;;6.12;100.00;101696.50;5059540;28;20039;-57
2021/12/14 07:28:44;;;;;;;18.48;13.40;;;;;;;6.11;100.00;101694.78;5065394;28;20106;-57
2021/12/14 07:31:21;;;;;;;14.77;10.98;;;;;;;6.04;100.00;101688.78;5064638;28;20032;-57
2021/12/14 07:33:56;;;;;;;18.35;12.18;;;;;;;6.12;100.00;101702.56;5061837;28;20117;-57
2021/12/14 07:36:26;;;;;;;18.00;12.45;;;;;;;6.09;100.00;101692.19;5047519;28;20036;-57
2021/12/14 07:38:58;;;;;;;21.52;12.50;;;;;;;6.11;100.00;101700.00;5046762;28;20039;-57
2021/12/14 07:41:30;;;;;;;19.08;12.50;;;;;;;6.09;100.00;101713.06;5047925;28;20028;-57
2021/12/14 07:43:55;;;;;;;19.13;12.45;;;;;;;6.12;100.00;101715.63;5047913;28;21045;-57
2021/12/14 07:46:26;;;;;;;17.65;12.57;;;;;;;6.14;100.00;101726.06;5054175;28;20056;-57
2021/12/14 07:48:55;;;;;;;18.23;12.23;;;;;;;6.12;100.00;101718.22;5046911;28;20092;-57
2021/12/14 07:51:22;;;;;;;17.13;12.63;;;;;;;6.03;100.00;101707.91;5047439;28;20269;-57
2021/12/14 07:53:53;;;;;;;14.38;11.55;;;;;;;6.14;100.00;101724.31;5047020;28;20021;-57
2021/12/14 07:56:33;;;;;;;17.05;11.73;;;;;;;6.16;100.00;101735.59;5046021;28;20032;-57
2021/12/14 07:58:59;;;;;;;15.70;12.45;;;;;;;6.15;100.00;101733.84;5047649;28;20130;-58
2021/12/14 08:01:26;;;;;;;18.48;12.75;;;;;;;6.16;100.00;101743.41;5047647;28;20063;-57
2021/12/14 08:04:06;;;;;;;19.23;13.65;;;;;;;6.16;100.00;101746.03;5047190;28;20047;-57
2021/12/14 08:06:54;;;;;;;18.40;13.55;;;;;;;6.16;100.00;101740.81;5047012;28;20139;-57
2021/12/14 08:09:45;;;;;;;21.70;13.80;;;;;;;6.18;100.00;101747.78;5047672;28;20031;-57
2021/12/14 08:12:12;;;;;;;18.40;12.27;;;;;;;6.18;100.00;101757.31;5047956;28;20917;-57
2021/12/14 08:14:37;;;;;;;19.25;12.90;;;;;;;6.18;100.00;101758.22;5046285;28;20039;-57
2021/12/14 08:17:08;;;;;;;14.45;12.23;;;;;;;6.18;100.00;101765.13;5048526;28;20031;-57
2021/12/14 08:19:39;;;;;;;22.95;14.05;;;;;;;6.20;100.00;101775.56;5060207;28;20832;-57
2021/12/14 08:22:12;;;;;;;17.92;12.25;;;;;;;6.23;100.00;101769.44;5066169;28;20093;-57
2021/12/14 08:24:38;;;;;;;17.02;12.73;;;;;;;6.23;100.00;101778.16;5066643;28;20138;-57
2021/12/14 08:27:06;;;;;;;18.98;13.48;;;;;;;6.24;100.00;101769.44;5067586;28;20131;-57
2021/12/14 08:29:34;;;;;;;20.70;13.80;;;;;;;6.23;100.00;101774.66;5067737;28;20043;-57
2021/12/14 08:32:11;;;;;;;22.33;13.73;;;;;;;6.24;100.00;101769.44;5046669;28;20081;-57
2021/12/14 08:34:45;;;;;;;18.27;12.90;;;;;;;6.24;100.00;101777.28;5060166;28;20182;-57
2021/12/14 08:37:20;;;;;;;16.75;13.02;;;;;;;6.26;100.00;101772.03;5065503;28;20027;-57
2021/12/14 08:39:54;;;;;;;20.58;12.95;;;;;;;6.27;100.00;101766.81;5066784;28;20124;-57
2021/12/14 08:42:25;;;;;;;17.30;13.70;;;;;;;6.28;100.00;101770.28;5066418;28;20023;-57
2021/12/14 08:44:56;;;;;;;22.15;13.70;;;;;;;6.28;100.00;101765.06;5066857;28;20039;-57
2021/12/14 08:47:35;;;;;;;18.25;12.48;;;;;;;6.30;100.00;101764.16;5048772;28;20062;-57
2021/12/14 08:50:06;;;;;;;22.17;14.60;;;;;;;6.31;100.00;101767.63;5066213;28;20093;-57
2021/12/14 08:52:31;;;;;;;23.15;14.88;;;;;;;6.32;100.00;101764.16;5068523;28;20052;-57
2021/12/14 08:54:59;;;;;;;21.05;13.85;;;;;;;6.32;100.00;101764.16;5065337;28;20041;-57
2021/12/14 08:57:26;;;;;;;20.73;14.38;;;;;;;6.34;100.00;101772.81;5047894;28;20030;-57
2021/12/14 08:59:58;;;;;;;22.50;14.82;;;;;;;6.35;100.00;101764.13;5047590;28;20056;-57
2021/12/14 09:02:25;;;;;;;22.65;16.35;;;;;;;6.10;100.00;101725.22;5047343;28;20027;-57
2021/12/14 09:04:55;;;;;;;19.52;13.27;;;;;;;6.37;100.00;101762.34;5059532;28;20142;-57
2021/12/14 09:07:24;;;;;;;21.65;16.25;;;;;;;6.09;100.00;101702.63;5054133;28;20028;-57
2021/12/14 09:09:50;;;;;;;27.83;15.52;;;;;;;6.39;100.00;101752.72;5061213;28;20055;-57
2021/12/14 09:12:24;;;;;;;19.70;15.05;;;;;;;6.43;100.00;101770.09;5053650;28;20042;-57
2021/12/14 09:14:52;;;;;;;22.17;16.52;;;;;;;6.26;100.00;101735.47;5048077;28;20455;-57
2021/12/14 09:17:21;;;;;;;22.65;17.15;;;;;;;6.49;100.00;101760.44;5061934;28;20096;-57
2021/12/14 09:19:56;;;;;;;22.27;16.40;;;;;;;6.52;100.00;101754.34;5064864;28;20383;-57
2021/12/14 09:22:26;;;;;;;30.42;17.30;;;;;;;6.52;100.00;101755.19;5057005;28;20423;-57
2021/12/14 09:24:54;;;;;;;21.70;16.08;;;;;;;6.55;100.00;101752.56;5048319;28;20034;-57
2021/12/14 09:27:22;;;;;;;22.20;17.48;;;;;;;6.61;100.00;101754.22;5067521;28;20055;-57
2021/12/14 09:29:49;;;;;;;21.38;16.40;;;;;;;6.65;100.00;101771.59;5063575;28;20097;-57
2021/12/14 09:32:20;;;;;;;24.02;16.50;;;;;;;6.69;100.00;101773.28;5042242;28;20020;-57
2021/12/14 09:34:46;;;;;;;23.70;15.02;;;;;;;6.72;100.00;101764.56;5046986;28;20036;-57
2021/12/14 09:37:13;;;;;;;25.50;16.88;;;;;;;6.75;100.00;101772.34;5046732;28;20102;-57
2021/12/14 09:39:43;;;;;;;22.75;15.68;;;;;;;6.83;100.00;101775.69;5045844;28;20135;-57
2021/12/14 09:42:13;;;;;;;20.98;15.68;;;;;;;6.88;100.00;101779.13;5046303;28;20039;-57
2021/12/14 09:44:39;;;;;;;22.48;16.02;;;;;;;6.56;100.00;101729.91;5044820;28;20039;-57
2021/12/14 09:47:10;;;;;;;19.77;16.00;;;;;;;6.85;100.00;101782.66;5044786;28;20081;-58
2021/12/14 09:49:40;;;;;;;24.70;16.83;;;;;;;6.85;100.00;101785.28;5044996;28;20134;-57
2021/12/14 09:52:10;;;;;;;22.65;15.45;;;;;;;6.89;100.00;101783.50;5047867;28;20024;-57
2021/12/14 09:54:36;;;;;;;21.15;16.15;;;;;;;6.90;100.00;101772.13;5050142;28;20032;-57
2021/12/14 09:57:36;;;;;;;22.05;16.20;;;;;;;6.96;100.00;101774.69;5050605;28;20032;-58
2021/12/14 10:00:09;;;;;;;19.00;15.75;;;;;;;6.85;100.00;101753.94;5045625;28;20230;-58
2021/12/14 10:02:37;;;;;;;22.10;15.65;;;;;;;7.04;100.00;101781.53;5049442;28;20031;-58
2021/12/14 10:05:38;;;;;;;24.63;16.75;;;;;;;7.08;100.00;101766.66;5050678;28;20033;-58
2021/12/14 10:08:14;;;;;;;22.20;15.93;;;;;;;7.13;100.00;101777.94;5044529;28;20197;-57
2021/12/14 10:10:44;;;;;;;23.75;16.75;;;;;;;7.17;100.00;101771.75;5048608;28;20032;-58
2021/12/14 10:13:10;;;;;;;22.20;16.13;;;;;;;7.17;100.00;101772.63;5055087;28;20043;-58
2021/12/14 10:15:47;;;;;;;18.58;14.90;;;;;;;7.18;100.00;101771.75;5061687;28;20252;-58
2021/12/14 10:18:17;;;;;;;18.65;15.60;;;;;;;7.21;100.00;101783.91;5063548;28;20028;-58
2021/12/14 10:20:48;;;;;;;22.15;16.25;;;;;;;7.19;100.00;101783.06;5060718;28;20024;-58
2021/12/14 10:23:16;;;;;;;21.48;17.17;;;;;;;7.20;100.00;101785.66;5055724;28;20097;-57
2021/12/14 10:25:41;;;;;;;24.23;17.52;;;;;;;7.21;100.00;101778.69;5046129;28;20825;-57
2021/12/14 10:28:07;;;;;;;23.25;17.17;;;;;;;7.27;100.00;101782.94;5047161;28;20035;-58
2021/12/14 10:30:39;;;;;;;24.00;15.82;;;;;;;7.24;100.00;101785.59;5064852;28;20164;-58
2021/12/14 10:33:07;;;;;;;21.95;16.45;;;;;;;7.24;100.00;101783.00;5047250;28;20055;-58
2021/12/14 10:35:40;;;;;;;23.55;16.60;;;;;;;7.24;100.00;101785.59;5058932;28;20029;-58
2021/12/14 10:38:34;;;;;;;26.52;16.58;;;;;;;7.25;100.00;101782.13;5065367;28;20089;-58
2021/12/14 10:43:49;;;;;;;25.60;17.42;;;;;;;7.17;100.00;101763.91;5048583;28;20047;-58
2021/12/14 10:46:29;;;;;;;23.70;18.05;;;;;;;7.20;100.00;101767.34;5049248;28;20083;-58
2021/12/14 10:48:56;;;;;;;21.98;15.73;;;;;;;7.25;100.00;101779.50;5049452;28;20823;-58
2021/12/14 10:51:29;;;;;;;24.00;18.63;;;;;;;7.29;100.00;101786.41;5049072;28;20024;-58
2021/12/14 10:53:57;;;;;;;25.67;16.65;;;;;;;7.36;100.00;101788.06;5032198;28;20113;-58
2021/12/14 10:56:33;;;;;;;22.90;16.27;;;;;;;7.40;100.00;101787.97;5050793;28;20093;-58
2021/12/14 10:59:02;;;;;;;20.63;16.42;;;;;;;7.45;100.00;101780.94;5049707;28;20028;-58
2021/12/14 11:01:32;;;;;;;24.38;16.77;;;;;;;7.36;100.00;101773.25;5048877;28;20977;-58
2021/12/14 11:04:10;;;;;;;19.52;15.25;;;;;;;7.52;100.00;101779.97;5048029;28;20055;-58
2021/12/14 11:06:38;;;;;;;21.90;16.50;;;;;;;7.62;100.00;101780.69;5049016;28;20120;-58
2021/12/14 11:11:37;;;;;;;22.23;16.77;;;;;;;7.69;100.00;101779.69;5047691;28;20038;-58
2021/12/14 11:14:08;;;;;;;29.88;16.83;;;;;;;7.76;100.00;101781.31;5047584;28;20759;-58
2021/12/14 11:19:47;;;;;;;23.83;16.50;;;;;;;7.79;100.00;101768.19;5047599;28;20939;-58
2021/12/14 11:22:32;;;;;;;25.38;17.40;;;;;;;7.91;100.00;101760.13;5048651;28;20840;-58
2021/12/14 11:24:59;;;;;;;;;;;;;;;7.93;100.00;101765.34;5049239;28;20020;-58
2021/12/14 11:27:25;;;;;;;24.05;14.98;;;;;;;7.95;100.00;101769.66;5048728;28;19915;-58
2021/12/14 11:29:55;;;;;;;22.92;16.73;;;;;;;8.05;100.00;101760.75;5047651;28;20031;-58
2021/12/14 11:32:23;;;;;;;22.42;16.55;;;;;;;8.14;100.00;101755.31;5048168;28;20093;-58
2021/12/14 11:34:49;;;;;;;18.77;15.82;;;;;;;8.02;100.00;101705.84;5048782;28;20190;-58
2021/12/14 11:37:20;;;;;;;18.33;13.73;;;;;;;8.09;100.00;101719.66;5049081;28;20126;-58
2021/12/14 11:39:49;;;;;;;20.13;14.60;;;;;;;8.29;100.00;101753.34;5046774;28;20028;-58
2021/12/14 11:42:18;;;;;;;22.58;14.75;;;;;;;8.25;100.00;101757.75;5048388;28;20039;-58
2021/12/14 11:44:47;;;;;;;19.52;14.75;;;;;;;8.26;100.00;101756.00;5050083;28;20538;-58
2021/12/14 11:50:16;;;;;;;26.33;14.73;;;;;;;8.22;100.00;101761.31;5048016;28;20143;-58
2021/12/14 11:52:57;;;;;;;20.55;15.93;;;;;;;8.26;100.00;101756.00;5046708;28;20040;-58
2021/12/14 11:55:24;;;;;;;18.25;13.70;;;;;;;8.40;100.00;101756.63;5048771;28;20310;-58
2021/12/14 11:58:04;;;;;;;16.38;13.85;;;;;;;8.38;100.00;101761.06;5046984;28;20085;-58
2021/12/14 12:00:29;;;;;;;17.15;13.50;;;;;;;8.40;100.00;101767.13;5045257;28;20046;-58
2021/12/14 12:02:55;;;;;;;22.10;14.27;;;;;;;8.36;100.00;101765.44;5047259;28;20028;-58
2021/12/14 12:05:26;;;;;;;20.90;14.27;;;;;;;8.37;100.00;101759.31;5048069;28;20027;-58
2021/12/14 12:10:43;;;;;;;21.83;15.02;;;;;;;8.35;100.00;101763.75;5046804;28;20035;-58
2021/12/14 12:13:12;;;;;;;17.55;14.52;;;;;;;8.31;100.00;101760.31;5050679;28;20032;-58
2021/12/14 12:15:41;;;;;;;17.23;14.32;;;;;;;8.19;100.00;101748.28;5053405;28;20039;-58